AirNav   ProFlight Series 2 Aviation Headset
 
 1322 users online  

2O8 Hinton Municipal Airport
Hinton, Oklahoma, USA

GOING TO HINTON?


FAA INFORMATION EFFECTIVE 16 JULY 2020

Location

FAA Identifier: 2O8
Lat/Long: 35-30-26.0000N 098-20-33.2000W
35-30.433333N 098-20.553333W
35.5072222,-98.3425556
(estimated)
Elevation: 1587 ft. / 483.7 m (surveyed)
Variation: 07E (1995)
From city: 2 miles NE of HINTON, OK
Time zone: UTC -5 (UTC -6 during Standard Time)
Zip code: 73047

Airport Operations

Airport use: Open to the public
Activation date: 05/1998
Control tower: no
ARTCC: FORT WORTH CENTER
FSS: MC ALESTER FLIGHT SERVICE STATION
NOTAMs facility: MLC (NOTAM-D service available)
Attendance: MON-SAT 0900-1700, ALL SUN 1300-1700
Wind indicator: lighted
Segmented circle: yes
Lights: MIRLS RY 17/35 PRESET LOW INTENSITY KEY TO INCREASE - CTAF.
Beacon: white-green (lighted land airport)
Operates sunset to sunrise.

Airport Communications

CTAF/UNICOM: 123.05
WX AWOS-3 at OJA (16 nm W): 118.575 (580-772-7020)
WX AWOS-3 at RQO (17 nm E): 118.475 (405-262-0087)
  • APCH/DEP SVC PRVDD BY FORT WORTH ARTCC ON FREQS 128.4/269.37 (CLINTON-SHERMAN RCAG).

Nearby radio navigation aids

VOR radial/distance  VOR name  Freq  Var
IFIr214/24.3KINGFISHER VORTAC114.7009E
PWAr259/34.0WILEY POST VOR/DME113.4008E
IRWr277/36.9WILL ROGERS VORTAC114.1007E

Airport Services

Fuel available: 100LL
FUEL AVBL 24 HRS WITH AUTOMATED CREDIT CARD SYSTEM.
Parking: tiedowns
Airframe service: NONE
Powerplant service: NONE
Bottled oxygen: NONE
Bulk oxygen: NONE

Runway Information

Runway 17/35

Dimensions: 4001 x 60 ft. / 1220 x 18 m
Surface: asphalt, in good condition
Runway edge lights: medium intensity
RUNWAY 17  RUNWAY 35
Latitude: 35-30.762542N35-30.103118N
Longitude: 098-20.557277W098-20.550350W
Elevation: 1577.4 ft.1586.9 ft.
Traffic pattern: leftleft
Runway heading: 173 magnetic, 180 true353 magnetic, 360 true
Markings: nonprecision, in good conditionnonprecision, in good condition
Visual slope indicator: 2-light PAPI on left (3.00 degrees glide path)
PAPI OTS INDEFLY.
2-light PAPI on left (3.00 degrees glide path)
PAPI OTS INDEFLY.
Touchdown point: yes, no lightsyes, no lights

Airport Ownership and Management from official FAA records

Ownership: Publicly-owned
Owner: TOWN OF HINTON
PO BOX 159
HINTON, OK 73047
Phone 405-542-3253
Manager: DIEDRE WELLMAN
PO BOX 67, 611 E AIRPORT RD.
HINTON, OK 73047
Phone 405-542-3993
FBO/AMGR.

Airport Operational Statistics

Aircraft based on the field: 20
Single engine airplanes: 10
Multi engine airplanes: 1
Gliders airplanes: 9
    
Aircraft operations: avg 67/week *
55% transient general aviation
45% local general aviation
* for 12-month period ending 05 March 2018

Additional Remarks

GLIDER ACTIVITY ON & INVOF ARPT.
FOR CD CTC FORT WORTH ARTCC AT 817-858-7584.

Instrument Procedures

NOTE: All procedures below are presented as PDF files. If you need a reader for these files, you should download the free Adobe Reader.

NOT FOR NAVIGATION. Please procure official charts for flight.
FAA instrument procedures published for use from 16 July 2020 at 0901Z to 13 August 2020 at 0900Z.

 
IAPs - Instrument Approach Procedures
RNAV (GPS) RWY 17   download (195KB)
RNAV (GPS) RWY 35   download (203KB)
NOTE: Special Take-Off Minimums/Departure Procedures apply   download (131KB)

Other nearby airports with instrument procedures:

KOJA - Thomas P Stafford Airport (16 nm W)
KRQO - El Reno Regional Airport (17 nm E)
KJWG - Watonga Regional Airport (22 nm N)
1O4 - Thomas Municipal Airport (23 nm NW)
KRCE - Clarence E Page Municipal Airport (25 nm E)
 
Loc | Ops | Rwys | IFR | FBO | Links
Com | Nav | Svcs | Stats | Notes
Area around 2O8 (Hinton Municipal Airport)
 
Road maps at: MapQuest Bing Google
 
Aerial photo
WARNING: Photo may not be current or correct
Aerial photo of 2O8 (Hinton Municipal Airport)
Photo by Jamie Szendrey

Do you have a better or more recent aerial photo of Hinton Municipal Airport that you would like to share? If so, please send us your photo.

 
Sectional chart

 
Airport distance calculator
Flying to Hinton Municipal Airport? Find the distance to fly.

From to 2O8

Sunrise and sunset
Times for 06-Aug-2020
 Local
(UTC-5)
 Zulu
(UTC)
Morning civil twilight06:2011:20
Sunrise06:4711:47
Sunset20:3101:31
Evening civil twilight20:5801:58

Current date and time
Zulu (UTC)  06-Aug-2020 14:21:19
Local (UTC-5)  06-Aug-2020 09:21:19
 
METAR
KOJA 
16nm W 
061355Z AUTO 18007KT 7SM OVC009 23/22 A2999 RMK AO2 LTG DSNT N
KRQO 
17nm E 
061355Z AUTO 17010KT 5SM HZ OVC005 A3001 RMK AO2 LTG DSNT NW
KJWG 
22nm N 
061355Z AUTO 17007KT 10SM OVC011 22/21 A3002 RMK AO2 LTG DSNT N AND NW T02240208
KRCE 
25nm E 
061355Z AUTO 8SM 23/21 A2999 RMK AO2
KCLK 
29nm W 
061355Z AUTO 16008KT 7SM OVC007 22/21 A3000 RMK AO2 LTG DSNT N
KCHK 
31nm SE 
061355Z AUTO 15010KT 7SM OVC009 24/22 A2996 RMK AO2 LTG DSNT NW T02390218
KHSD 
32nm E 
061355Z AUTO 17008G14KT 6SM BR BKN009 OVC013 23/21 A2999 RMK A01
TAF
KOKC 
37nm E 
061120Z 0612/0712 14010KT P6SM OVC007 FM061400 15012KT P6SM BKN025 FM061600 16013G18KT P6SM SCT040 BKN150 FM070600 16011KT P6SM BKN250
KCSM 
43nm W 
061120Z 0612/0712 12008KT P6SM BKN009 FM061400 18014G22KT P6SM SCT040 BKN150 FM062300 15013G22KT P6SM BKN250 FM070600 18010KT P6SM SCT250
NOTAMs
Click for the latest NOTAMs
NOTAMs are issued by the DoD/FAA and will open in a separate window not controlled by AirNav.

 

 
 

FBO, Fuel Providers, and Aircraft Ground Support

  
 Business Name 
 
 Contact 
 
 Services / Description 
 
Fuel Prices
 
Comments
  
Hinton Airport 405-542-3993 Airport management, Aviation fuel, Aircraft parking (ramp or tiedown), Courtesy transportation, Public telephone, Internet access, Restrooms, Showers

More info about Hinton Airport
Phillips 66
100LL
SS $2.95 
 Updated 30-Jul-2020
 
   5 read write
SS=Self service
Update Fuel Prices
 

Would you like to see your business listed on this page?

 If your business provides an interesting product or service to pilots, flight crews, aircraft, or users of the Hinton Municipal Airport, you should consider listing it here.  To start the listing process, click on the button below
 
Add a business
 

Other Pages about Hinton Municipal Airport

Mid Air Collision Avoidance Chart
 
Update a link
 
Copyright © AirNav, LLC. All rights reserved. Privacy Policy  Contact